Time;durP1;ratioP1;P1;durP2;ratioP2;P2;SDS_P1;SDS_P2;PMS_P1;PMS_P2;Temp;Humidity;BMP_temperature;BMP_pressure;BME280_temperature;BME280_humidity;BME280_pressure;Samples;Min_cycle;Max_cycle;Signal;HPM_P1;HPM_P2
2022/10/06 00:00:10;;;;;;;0.00;0.00;;;;;;;17.72;58.32;99488.44;4981300;28;20633;-63
2022/10/06 00:02:37;;;;;;;0.00;0.00;;;;;;;17.54;58.91;99492.19;4976953;28;20237;-63
2022/10/06 00:05:05;;;;;;;0.00;0.00;;;;;;;17.50;59.16;99495.34;4979881;28;20241;-63
2022/10/06 00:07:32;;;;;;;0.00;0.00;;;;;;;17.54;58.10;99492.19;4977404;28;20244;-63
2022/10/06 00:09:58;;;;;;;0.00;0.00;;;;;;;17.76;58.23;99502.94;4978846;28;20667;-62
2022/10/06 00:12:25;;;;;;;0.00;0.00;;;;;;;17.82;57.81;99507.50;4979093;28;20263;-62
2022/10/06 00:14:51;;;;;;;0.00;0.00;;;;;;;17.85;58.77;99508.97;4981658;28;20294;-62
2022/10/06 00:17:18;;;;;;;0.00;0.00;;;;;;;17.76;58.64;99512.66;4977767;28;20252;-62
2022/10/06 00:19:44;;;;;;;0.00;0.00;;;;;;;17.79;57.99;99515.78;4981653;28;20661;-62
2022/10/06 00:22:12;;;;;;;0.00;0.00;;;;;;;17.81;57.88;99521.72;4980469;28;20229;-63
2022/10/06 00:24:39;;;;;;;0.00;0.00;;;;;;;17.69;59.25;99528.41;4976085;28;20261;-63
2022/10/06 00:27:05;;;;;;;0.00;0.00;;;;;;;17.51;60.05;99534.78;4981968;28;20237;-63
2022/10/06 00:29:32;;;;;;;0.00;0.00;;;;;;;17.36;60.70;99541.78;4961875;28;20643;-63
2022/10/06 00:31:59;;;;;;;0.00;0.00;;;;;;;17.02;62.01;99545.53;4962020;28;20221;-63
2022/10/06 00:34:26;;;;;;;0.00;0.00;;;;;;;16.73;63.82;99545.09;4978902;28;20242;-63
2022/10/06 00:36:53;;;;;;;0.00;0.00;;;;;;;16.40;65.57;99560.13;4982091;28;20798;-63
2022/10/06 00:39:21;;;;;;;0.00;0.00;;;;;;;16.07;67.42;99563.59;4960636;28;21167;-63
2022/10/06 00:41:50;;;;;;;0.00;0.00;;;;;;;15.78;68.74;99570.94;4979574;28;20304;-63
2022/10/06 00:44:17;;;;;;;0.00;0.00;;;;;;;15.55;69.76;99578.59;4959376;28;20694;-63
2022/10/06 00:46:45;;;;;;;0.00;0.00;;;;;;;15.38;71.42;99579.50;4962272;28;20288;-63
2022/10/06 00:49:17;;;;;;;0.00;0.00;;;;;;;15.18;72.66;99579.78;4963026;28;20227;-63
2022/10/06 00:51:48;;;;;;;0.00;0.00;;;;;;;15.04;73.88;99578.53;4977619;28;20235;-63
2022/10/06 00:54:16;;;;;;;0.00;0.00;;;;;;;14.83;75.39;99581.56;4959333;28;20351;-62
2022/10/06 00:56:45;;;;;;;0.00;0.00;;;;;;;14.63;78.00;99575.66;4962065;28;20241;-62
2022/10/06 00:59:13;;;;;;;0.00;0.00;;;;;;;14.49;77.92;99575.22;4981317;28;20714;-62
2022/10/06 01:01:44;;;;;;;0.00;0.00;;;;;;;14.31;80.06;99578.69;4977477;28;20239;-62
2022/10/06 01:04:16;;;;;;;0.00;0.00;;;;;;;14.17;81.10;99581.84;4961592;28;20306;-62
2022/10/06 01:06:45;;;;;;;0.00;0.00;;;;;;;14.08;81.70;99580.13;4959714;28;20254;-62
2022/10/06 01:09:13;;;;;;;0.00;0.00;;;;;;;14.07;83.07;99592.44;4963175;28;20222;-62
2022/10/06 01:11:40;;;;;;;0.00;0.00;;;;;;;14.06;84.77;99596.03;4961542;28;20768;-62
2022/10/06 01:14:09;;;;;;;0.00;0.00;;;;;;;14.08;85.63;99598.50;4963495;28;20289;-62
2022/10/06 01:16:39;;;;;;;0.00;0.00;;;;;;;14.07;86.30;99597.69;4959385;28;20241;-62
2022/10/06 01:19:13;;;;;;;0.00;0.00;;;;;;;14.13;86.04;99602.34;4980876;28;20712;-63
2022/10/06 01:21:45;;;;;;;0.00;0.00;;;;;;;14.12;86.70;99594.59;4960241;28;20235;-63
2022/10/06 01:24:14;;;;;;;0.00;0.00;;;;;;;14.09;86.68;99589.66;4980051;28;20248;-63
2022/10/06 01:26:48;;;;;;;0.00;0.00;;;;;;;14.07;86.15;99587.19;4959242;28;20356;-63
2022/10/06 01:29:16;;;;;;;0.00;0.00;;;;;;;14.23;83.37;99586.50;4959210;28;20329;-63
2022/10/06 01:31:43;;;;;;;0.00;0.00;;;;;;;14.39;81.65;99585.00;4962991;28;20288;-63
2022/10/06 01:34:10;;;;;;;0.00;0.00;;;;;;;14.55;80.61;99595.63;4974661;28;20225;-63
2022/10/06 01:36:39;;;;;;;0.00;0.00;;;;;;;14.70;80.03;99590.66;4958762;28;20619;-61
2022/10/06 01:39:06;;;;;;;0.00;0.00;;;;;;;14.91;79.55;99592.13;4962752;28;20238;-62
2022/10/06 01:41:34;;;;;;;0.00;0.00;;;;;;;15.07;78.13;99588.75;4959209;28;20254;-62
2022/10/06 01:44:02;;;;;;;0.00;0.00;;;;;;;15.34;76.10;99593.00;4962990;28;20315;-62
2022/10/06 01:46:29;;;;;;;0.00;0.00;;;;;;;15.60;74.80;99596.53;4959801;28;20237;-62
2022/10/06 01:48:56;;;;;;;0.00;0.00;;;;;;;15.74;74.12;99590.66;4963580;28;20239;-62
2022/10/06 01:51:23;;;;;;;0.00;0.00;;;;;;;15.82;74.17;99607.47;4971724;28;20227;-62
2022/10/06 01:53:50;;;;;;;0.00;0.00;;;;;;;15.96;72.29;99595.50;4964776;28;20281;-62
2022/10/06 01:56:43;;;;;;;0.00;0.00;;;;;;;16.02;71.99;99598.31;4985518;28;21667;-62
2022/10/06 01:59:34;;;;;;;0.00;0.00;;;;;;;16.15;71.74;99597.00;4976189;28;20231;-62
2022/10/06 02:02:30;;;;;;;0.00;0.00;;;;;;;16.22;71.07;99609.38;4976625;28;20216;-62
2022/10/06 02:05:21;;;;;;;0.00;0.00;;;;;;;16.21;71.41;99612.16;4979532;28;20308;-62
2022/10/06 02:08:14;;;;;;;0.00;0.00;;;;;;;16.22;72.00;99611.19;4980426;28;20216;-62
2022/10/06 02:11:08;;;;;;;0.00;0.00;;;;;;;16.34;71.60;99611.69;4979573;28;20352;-62
2022/10/06 02:14:02;;;;;;;0.00;0.00;;;;;;;16.36;71.34;99626.34;4980859;28;20719;-62
2022/10/06 02:16:54;;;;;;;0.00;0.00;;;;;;;16.38;70.96;99624.38;4980214;28;20244;-62
2022/10/06 02:19:46;;;;;;;0.00;0.00;;;;;;;16.43;71.44;99628.31;4980558;28;20338;-62
2022/10/06 02:22:12;;;;;;;0.00;0.00;;;;;;;16.30;72.23;99627.00;4962580;28;20738;-62
2022/10/06 02:24:39;;;;;;;0.00;0.00;;;;;;;16.50;70.63;99631.94;4960183;28;20238;-62
2022/10/06 02:27:06;;;;;;;0.00;0.00;;;;;;;16.42;71.68;99630.16;4984056;28;20244;-62
2022/10/06 02:29:35;;;;;;;0.00;0.00;;;;;;;16.45;71.66;99642.97;4954958;28;20327;-62
2022/10/06 02:32:04;;;;;;;0.00;0.00;;;;;;;16.51;72.34;99644.13;4964974;28;20251;-62
2022/10/06 02:34:30;;;;;;;0.00;0.00;;;;;;;16.68;71.30;99660.75;4962170;28;20261;-62
2022/10/06 02:36:57;;;;;;;0.00;0.00;;;;;;;16.60;71.76;99664.22;4965149;28;20618;-62
2022/10/06 02:39:24;;;;;;;0.00;0.00;;;;;;;16.71;71.57;99667.53;4972988;28;20581;-62
2022/10/06 02:41:51;;;;;;;0.00;0.00;;;;;;;16.67;72.02;99667.03;4964054;28;20616;-62
2022/10/06 02:44:19;;;;;;;0.00;0.00;;;;;;;16.70;71.81;99671.16;4960105;28;20225;-62
2022/10/06 02:46:48;;;;;;;0.00;0.00;;;;;;;16.66;70.81;99682.03;4962160;28;20344;-62
2022/10/06 02:49:15;;;;;;;0.00;0.00;;;;;;;16.57;71.79;99684.81;4964291;28;20231;-62
2022/10/06 02:51:41;;;;;;;0.00;0.00;;;;;;;16.54;73.38;99691.25;4966666;28;20271;-62
2022/10/06 02:54:08;;;;;;;0.00;0.00;;;;;;;16.45;72.98;99694.84;4962061;28;20879;-62
2022/10/06 02:56:36;;;;;;;0.00;0.00;;;;;;;16.48;73.75;99697.97;4967559;28;20301;-62
2022/10/06 02:59:03;;;;;;;0.00;0.00;;;;;;;16.43;74.14;99707.38;4970333;28;20239;-62
2022/10/06 03:01:34;;;;;;;0.00;0.00;;;;;;;16.39;74.43;99717.44;4974072;28;20248;-63
2022/10/06 03:04:10;;;;;;;0.00;0.00;;;;;;;16.32;73.68;99726.97;4987312;28;20228;-63
2022/10/06 03:06:37;;;;;;;0.00;0.00;;;;;;;16.20;74.68;99719.34;4966734;28;20215;-62
2022/10/06 03:09:10;;;;;;;0.00;0.00;;;;;;;16.11;76.06;99720.31;4960662;28;20242;-62
2022/10/06 03:11:41;;;;;;;0.00;0.00;;;;;;;16.10;76.05;99721.28;4966822;28;20239;-62
2022/10/06 03:14:10;;;;;;;0.00;0.00;;;;;;;16.09;76.23;99725.72;4970310;28;20231;-62
2022/10/06 03:16:38;;;;;;;0.00;0.00;;;;;;;16.06;77.63;99728.69;4967086;28;20335;-62
2022/10/06 03:19:10;;;;;;;0.00;0.00;;;;;;;16.02;78.79;99737.06;4970193;28;20234;-61
2022/10/06 03:21:41;;;;;;;0.00;0.00;;;;;;;16.03;80.06;99742.16;4966968;28;20240;-63
2022/10/06 03:24:08;;;;;;;0.00;0.00;;;;;;;15.99;80.81;99745.28;4959052;28;20229;-62
2022/10/06 03:26:39;;;;;;;0.00;0.00;;;;;;;15.96;81.75;99750.88;4965509;28;20315;-62
2022/10/06 03:29:07;;;;;;;0.00;0.00;;;;;;;15.97;80.56;99757.78;4959537;28;20280;-62
2022/10/06 03:31:34;;;;;;;0.00;0.00;;;;;;;15.94;80.65;99758.91;4965212;28;20316;-62
2022/10/06 03:34:02;;;;;;;0.00;0.00;;;;;;;15.90;80.37;99760.22;4969470;28;20246;-62
2022/10/06 03:36:32;;;;;;;0.00;0.00;;;;;;;15.85;80.89;99765.91;4967521;28;20232;-62
2022/10/06 03:39:01;;;;;;;0.00;0.00;;;;;;;15.82;82.13;99775.97;4969880;28;20232;-62
2022/10/06 03:41:30;;;;;;;0.00;0.00;;;;;;;15.79;83.01;99774.44;4966694;28;20239;-62
2022/10/06 03:43:58;;;;;;;0.00;0.00;;;;;;;15.76;83.51;99775.59;4958143;28;20331;-62
2022/10/06 03:46:28;;;;;;;0.00;0.00;;;;;;;15.76;84.05;99780.88;4959012;28;20232;-63
2022/10/06 03:48:58;;;;;;;0.00;0.00;;;;;;;15.74;84.19;99789.88;4969521;28;20315;-63
2022/10/06 03:51:28;;;;;;;0.00;0.00;;;;;;;15.72;85.30;99787.41;4966777;28;20248;-63
2022/10/06 03:53:57;;;;;;;0.00;0.00;;;;;;;15.72;85.89;99792.69;4968775;28;20281;-63
2022/10/06 03:56:26;;;;;;;0.00;0.00;;;;;;;15.74;86.42;99797.78;4966349;28;20237;-63
2022/10/06 03:58:55;;;;;;;0.00;0.00;;;;;;;15.67;87.78;99796.75;4961938;28;20231;-63
2022/10/06 04:01:24;;;;;;;0.00;0.00;;;;;;;15.61;88.22;99796.38;4968503;28;20236;-63
2022/10/06 04:03:51;;;;;;;0.00;0.00;;;;;;;15.60;88.86;99786.03;4983907;28;20232;-63
2022/10/06 04:06:19;;;;;;;0.00;0.00;;;;;;;15.57;88.86;99794.22;4968115;28;20643;-63
2022/10/06 04:08:47;;;;;;;0.00;0.00;;;;;;;15.61;88.41;99800.84;4982551;28;20690;-63
2022/10/06 04:11:17;;;;;;;0.00;0.00;;;;;;;15.62;89.10;99803.31;4968427;28;20240;-63
2022/10/06 04:13:45;;;;;;;0.00;0.00;;;;;;;15.57;89.92;99802.94;4956502;28;20246;-63
2022/10/06 04:16:14;;;;;;;0.00;0.00;;;;;;;15.56;90.04;99803.91;4968819;28;20263;-63
2022/10/06 04:18:41;;;;;;;0.00;0.00;;;;;;;15.55;89.95;99806.72;4982059;28;20233;-63
2022/10/06 04:21:08;;;;;;;0.00;0.00;;;;;;;15.54;89.75;99811.13;4967585;28;20233;-63
2022/10/06 04:23:35;;;;;;;0.00;0.00;;;;;;;15.50;89.70;99821.16;4965292;28;20349;-63
2022/10/06 04:26:05;;;;;;;0.00;0.00;;;;;;;15.52;89.24;99822.81;4969089;28;20233;-63
2022/10/06 04:28:34;;;;;;;0.00;0.00;;;;;;;15.48;90.29;99835.44;4982957;28;20239;-62
2022/10/06 04:31:01;;;;;;;0.00;0.00;;;;;;;15.50;89.68;99836.09;4968859;28;20225;-62
2022/10/06 04:33:33;;;;;;;0.00;0.00;;;;;;;15.45;89.88;99839.22;4966289;28;20319;-62
2022/10/06 04:36:01;;;;;;;0.00;0.00;;;;;;;15.42;89.70;99842.16;4969852;28;20244;-62
2022/10/06 04:38:31;;;;;;;0.00;0.00;;;;;;;15.38;90.43;99853.09;4966827;28;20265;-62
2022/10/06 04:41:04;;;;;;;0.00;0.00;;;;;;;15.33;90.67;99856.22;4968473;28;20233;-62
2022/10/06 04:43:31;;;;;;;0.00;0.00;;;;;;;15.34;91.05;99865.75;4981623;28;20231;-62
2022/10/06 04:46:00;;;;;;;0.00;0.00;;;;;;;15.27;91.44;99870.81;4968975;28;20592;-62
2022/10/06 04:48:28;;;;;;;0.00;0.00;;;;;;;15.24;92.66;99872.91;4967309;28;20369;-62
2022/10/06 04:50:57;;;;;;;0.00;0.00;;;;;;;15.20;92.93;99875.00;4970401;28;20227;-62
2022/10/06 04:53:23;;;;;;;0.00;0.00;;;;;;;15.19;93.28;99876.00;4982828;28;20242;-62
2022/10/06 04:56:01;;;;;;;0.00;0.00;;;;;;;15.16;93.81;99865.78;4955811;28;20223;-62
2022/10/06 04:58:31;;;;;;;0.00;0.00;;;;;;;15.15;94.28;99870.19;4964883;28;20744;-62
2022/10/06 05:01:00;;;;;;;0.00;0.00;;;;;;;15.11;94.60;99889.06;4967935;28;20263;-62
2022/10/06 05:03:28;;;;;;;0.00;0.00;;;;;;;15.10;94.57;99877.69;4983365;28;20231;-62
2022/10/06 05:06:03;;;;;;;0.00;0.00;;;;;;;15.06;95.15;99878.97;4972300;28;20229;-62
2022/10/06 05:08:30;;;;;;;0.00;0.00;;;;;;;15.05;95.15;99887.84;4965885;28;20227;-62
2022/10/06 05:11:02;;;;;;;0.00;0.00;;;;;;;15.04;95.14;99891.44;4961529;28;20779;-62
2022/10/06 05:13:30;;;;;;;0.00;0.00;;;;;;;15.00;95.55;99892.72;4965887;28;20373;-62
2022/10/06 05:16:01;;;;;;;0.00;0.00;;;;;;;14.95;94.40;99893.16;4975886;28;20221;-62
2022/10/06 05:18:31;;;;;;;0.00;0.00;;;;;;;14.94;94.16;99898.56;4964006;28;20239;-62
2022/10/06 05:21:00;;;;;;;0.00;0.00;;;;;;;14.91;93.47;99905.75;4984483;28;20231;-62
2022/10/06 05:23:28;;;;;;;0.00;0.00;;;;;;;14.92;92.60;99917.13;4981682;28;20314;-62
2022/10/06 05:25:57;;;;;;;0.00;0.00;;;;;;;14.90;92.17;99912.00;4969912;28;20294;-62
2022/10/06 05:28:25;;;;;;;0.00;0.00;;;;;;;14.91;92.08;99908.41;4964793;28;20262;-62
2022/10/06 05:31:00;;;;;;;0.00;0.00;;;;;;;14.86;92.68;99907.19;4967980;28;20581;-62
2022/10/06 05:33:29;;;;;;;0.00;0.00;;;;;;;14.83;91.69;99907.50;4966313;28;20323;-62
2022/10/06 05:35:57;;;;;;;0.00;0.00;;;;;;;14.80;90.07;99908.63;4969111;28;20722;-62
2022/10/06 05:38:26;;;;;;;0.00;0.00;;;;;;;14.76;90.76;99913.31;4965922;28;20707;-62
2022/10/06 05:41:00;;;;;;;0.00;0.00;;;;;;;14.75;91.56;99929.25;4961505;28;20300;-62
2022/10/06 05:43:27;;;;;;;0.00;0.00;;;;;;;14.74;91.45;99931.03;4957767;28;20326;-62
2022/10/06 05:45:56;;;;;;;0.00;0.00;;;;;;;14.75;91.21;99930.06;4975243;28;20232;-62
2022/10/06 05:48:51;;;;;;;0.00;0.00;;;;;;;14.75;91.13;99926.63;4996097;28;20209;-62
2022/10/06 05:51:43;;;;;;;0.00;0.00;;;;;;;14.75;91.53;99931.88;4986757;28;20691;-62
2022/10/06 05:54:17;;;;;;;0.00;0.00;;;;;;;14.78;91.06;99931.59;4971171;28;20232;-62
2022/10/06 05:56:44;;;;;;;0.00;0.00;;;;;;;14.78;92.13;99936.00;4968311;28;20240;-62
2022/10/06 05:59:11;;;;;;;0.00;0.00;;;;;;;14.80;92.74;99934.06;4970217;28;20743;-62
2022/10/06 06:01:39;;;;;;;0.00;0.00;;;;;;;14.76;92.45;99939.59;4965596;28;20232;-62
2022/10/06 06:04:13;;;;;;;0.00;0.00;;;;;;;14.81;92.10;99943.59;4971257;28;20619;-62
2022/10/06 06:06:48;;;;;;;0.00;0.00;;;;;;;14.77;93.12;99956.22;4968568;28;20235;-62
2022/10/06 06:09:25;;;;;;;0.00;0.00;;;;;;;14.77;94.41;99950.97;4958863;28;20235;-62
2022/10/06 06:11:54;;;;;;;0.00;0.00;;;;;;;14.77;95.15;99956.22;4962632;28;20234;-62
2022/10/06 06:17:06;;;;;;;0.00;0.00;;;;;;;14.75;95.02;99977.38;4960562;28;20228;-62
2022/10/06 06:19:34;;;;;;;0.00;0.00;;;;;;;14.74;94.98;99974.91;4968328;28;20233;-62
2022/10/06 06:22:01;;;;;;;0.00;0.00;;;;;;;14.74;93.61;99973.09;4970571;28;20309;-62
2022/10/06 06:24:28;;;;;;;0.00;0.00;;;;;;;14.77;93.64;99972.00;4967722;28;20238;-62
2022/10/06 06:26:54;;;;;;;0.00;0.00;;;;;;;14.76;93.02;99972.97;4971152;28;20320;-62
2022/10/06 06:29:22;;;;;;;0.00;0.00;;;;;;;14.75;91.11;99989.72;4958263;28;20254;-62
2022/10/06 06:31:49;;;;;;;0.00;0.00;;;;;;;14.72;90.48;99993.44;4972153;28;20775;-62
2022/10/06 06:34:16;;;;;;;0.00;0.00;;;;;;;14.71;88.90;100002.28;4971329;28;20230;-62
2022/10/06 06:36:50;;;;;;;0.00;0.00;;;;;;;14.67;88.02;100002.72;4967311;28;20230;-62
2022/10/06 06:39:18;;;;;;;0.00;0.00;;;;;;;14.64;88.47;100014.31;4988780;28;20236;-62
2022/10/06 06:41:47;;;;;;;0.00;0.00;;;;;;;14.65;88.51;100013.34;4966887;28;20236;-62
2022/10/06 06:44:49;;;;;;;0.00;0.00;;;;;;;14.65;87.63;100010.72;4963474;28;20710;-62
2022/10/06 06:47:22;;;;;;;0.00;0.00;;;;;;;14.63;88.00;100017.91;4968063;28;20248;-62
2022/10/06 06:49:48;;;;;;;0.00;0.00;;;;;;;14.66;87.68;100024.69;4971580;28;20236;-62
2022/10/06 06:52:16;;;;;;;0.00;0.00;;;;;;;14.66;87.63;100027.34;4988529;28;20939;-62
2022/10/06 06:54:46;;;;;;;0.00;0.00;;;;;;;14.69;87.19;100027.88;4969264;28;20231;-62
2022/10/06 06:57:14;;;;;;;0.00;0.00;;;;;;;14.70;87.82;100026.91;4962967;28;20237;-62
2022/10/06 06:59:41;;;;;;;0.00;0.00;;;;;;;14.72;88.07;100040.75;4967923;28;24535;-62
2022/10/06 07:02:10;;;;;;;0.00;0.00;;;;;;;14.71;87.36;100046.97;4972487;28;20269;-62
2022/10/06 07:04:39;;;;;;;0.00;0.00;;;;;;;14.73;87.54;100049.47;4969004;28;20321;-62
2022/10/06 07:07:11;;;;;;;0.00;0.00;;;;;;;14.75;87.69;100047.53;4970286;28;20227;-62
2022/10/06 07:09:39;;;;;;;0.00;0.00;;;;;;;14.73;87.68;100049.47;4966827;28;20234;-62
2022/10/06 07:12:11;;;;;;;0.00;0.00;;;;;;;14.73;87.55;100054.72;4986608;28;20246;-62
2022/10/06 07:25:05;;;;;;;0.00;0.00;;;;;;;14.73;87.37;100057.34;4958013;28;20230;-62
2022/10/06 07:25:56;;;;;;;0.00;0.00;;;;;;;14.85;86.35;100063.25;4917242;29;20236;-62
2022/10/06 07:28:23;;;;;;;0.00;0.00;;;;;;;14.90;84.46;100061.03;4956422;28;20228;-62
2022/10/06 07:30:51;;;;;;;0.00;0.00;;;;;;;14.91;83.16;100063.50;4961288;28;20239;-62
2022/10/06 07:33:20;;;;;;;0.00;0.00;;;;;;;15.02;81.92;100059.88;4965775;28;20221;-63
2022/10/06 07:35:48;;;;;;;0.00;0.00;;;;;;;15.13;81.76;100058.84;4965701;28;20235;-62
2022/10/06 07:38:18;;;;;;;0.00;0.00;;;;;;;15.28;81.05;100061.00;4972188;28;20238;-63
2022/10/06 07:40:55;;;;;;;0.00;0.00;;;;;;;15.45;80.74;100062.88;4960430;28;20268;-59
2022/10/06 07:43:25;;;;;;;0.00;0.00;;;;;;;15.58;79.80;100066.94;4966403;28;20247;-63
2022/10/06 07:45:52;;;;;;;0.00;0.00;;;;;;;15.66;79.67;100080.19;4958932;28;20333;-63
2022/10/06 07:48:26;;;;;;;0.00;0.00;;;;;;;15.67;76.26;100078.38;4966472;28;20235;-63
2022/10/06 07:50:57;;;;;;;0.00;0.00;;;;;;;15.74;75.85;100079.44;4975935;28;20235;-64
2022/10/06 07:53:28;;;;;;;0.00;0.00;;;;;;;15.86;76.65;100077.44;4966670;28;20236;-64
2022/10/06 07:56:05;;;;;;;0.00;0.00;;;;;;;15.97;75.35;100084.31;4971393;28;20287;-64
2022/10/06 07:58:37;;;;;;;0.00;0.00;;;;;;;16.00;75.52;100089.28;4956329;28;20260;-64
2022/10/06 08:01:05;;;;;;;0.00;0.00;;;;;;;16.19;76.31;100080.41;4959222;28;20266;-67
2022/10/06 08:03:32;;;;;;;0.00;0.00;;;;;;;16.38;72.38;100082.06;4968626;28;20711;-63
2022/10/06 08:06:02;;;;;;;0.00;0.00;;;;;;;16.50;73.81;100091.34;4985447;28;20248;-63
2022/10/06 08:08:30;;;;;;;0.00;0.00;;;;;;;16.65;69.64;100083.72;4974778;28;20277;-63
2022/10/06 08:10:59;;;;;;;0.00;0.00;;;;;;;16.68;69.22;100091.31;4975291;28;20234;-63
2022/10/06 08:13:26;;;;;;;0.00;0.00;;;;;;;16.75;70.23;100093.34;4982650;28;20229;-64
2022/10/06 08:15:55;;;;;;;0.00;0.00;;;;;;;16.90;68.60;100097.06;4960980;28;20280;-64
2022/10/06 08:18:23;;;;;;;0.00;0.00;;;;;;;16.90;66.87;100097.06;4975489;28;20575;-64
2022/10/06 08:20:50;;;;;;;0.00;0.00;;;;;;;17.02;67.40;100104.72;4978039;28;20248;-64
2022/10/06 08:23:16;;;;;;;0.00;0.00;;;;;;;16.81;67.01;100103.28;4917061;28;20714;-64
2022/10/06 08:25:49;;;;;;;0.00;0.00;;;;;;;16.62;67.95;100109.53;4975040;28;20274;-64
2022/10/06 08:28:16;;;;;;;0.00;0.00;;;;;;;16.79;66.96;100110.50;4984845;28;20231;-63
2022/10/06 08:30:43;;;;;;;0.00;0.00;;;;;;;16.91;67.22;100109.28;4982042;28;20907;-64
2022/10/06 08:33:11;;;;;;;0.00;0.00;;;;;;;17.05;67.20;100123.72;4984262;28;20273;-64
2022/10/06 08:35:38;;;;;;;0.00;0.00;;;;;;;16.96;67.82;100120.19;4980855;28;20776;-64
2022/10/06 08:38:05;;;;;;;0.00;0.00;;;;;;;17.19;66.77;100111.75;4967947;28;20272;-64
2022/10/06 08:40:32;;;;;;;0.00;0.00;;;;;;;17.12;66.76;100121.25;5680590;23;20998;-65
2022/10/06 08:43:01;;;;;;;0.00;0.00;;;;;;;17.04;68.20;100116.78;4984360;28;20287;-64
2022/10/06 08:45:31;;;;;;;0.00;0.00;;;;;;;17.26;70.03;100118.03;4982169;28;20345;-64
2022/10/06 08:48:02;;;;;;;0.00;0.00;;;;;;;17.38;68.32;100126.53;4984979;28;20287;-64
2022/10/06 08:50:37;;;;;;;0.00;0.00;;;;;;;17.47;69.25;100124.72;4979316;28;20275;-64
2022/10/06 08:53:10;;;;;;;0.00;0.00;;;;;;;17.49;68.76;100125.41;4967740;28;20237;-65
2022/10/06 08:55:42;;;;;;;0.00;0.00;;;;;;;17.63;67.41;100123.16;4963557;28;20340;-65
2022/10/06 08:58:31;;;;;;;0.00;0.00;;;;;;;17.65;67.38;100129.91;4966482;28;20241;-65
2022/10/06 09:01:09;;;;;;;0.00;0.00;;;;;;;17.81;68.95;100136.22;4962429;28;20709;-65
2022/10/06 09:03:37;;;;;;;0.00;0.00;;;;;;;17.75;66.71;100128.94;4974829;23;20237;-59
2022/10/06 09:06:28;;;;;;;0.00;0.00;;;;;;;17.87;64.63;100138.22;4985186;28;20233;-60
2022/10/06 09:08:58;;;;;;;0.00;0.00;;;;;;;17.75;62.75;100142.16;4982947;28;20260;-60
2022/10/06 09:11:43;;;;;;;0.00;0.00;;;;;;;17.54;63.58;100141.59;4981518;28;20263;-60
2022/10/06 09:14:16;;;;;;;0.00;0.00;;;;;;;17.39;66.35;100140.53;4984590;28;20232;-60
2022/10/06 09:16:50;;;;;;;0.00;0.00;;;;;;;17.53;64.73;100144.38;4981702;28;20228;-59
2022/10/06 09:19:22;;;;;;;0.00;0.00;;;;;;;17.32;66.76;100142.16;4984942;28;20232;-60
2022/10/06 09:21:52;;;;;;;0.00;0.00;;;;;;;17.36;66.97;100143.50;4982019;28;20242;-60
2022/10/06 09:24:28;;;;;;;0.00;0.00;;;;;;;17.63;63.94;100149.56;4984350;28;20295;-59
2022/10/06 09:26:58;;;;;;;0.00;0.00;;;;;;;17.67;64.77;100146.41;4954396;28;20610;-60
2022/10/06 09:29:30;;;;;;;0.00;0.00;;;;;;;17.72;66.96;100138.03;4982084;28;20230;-58
2022/10/06 09:32:01;;;;;;;0.00;0.00;;;;;;;18.13;65.70;100143.41;4984668;28;20605;-60
2022/10/06 09:34:37;;;;;;;0.00;0.00;;;;;;;18.07;63.46;100141.44;4980926;28;20234;-59
2022/10/06 09:37:08;;;;;;;0.00;0.00;;;;;;;17.80;64.67;100140.69;4968436;28;20233;-61
2022/10/06 09:39:39;;;;;;;0.00;0.00;;;;;;;17.90;65.16;100148.47;4964720;28;20681;-60
2022/10/06 09:42:13;;;;;;;0.00;0.00;;;;;;;18.06;65.11;100152.97;4985014;28;20296;-60
2022/10/06 09:45:03;;;;;;;0.00;0.00;;;;;;;18.27;63.87;100149.91;4982105;28;20234;-60
2022/10/06 09:47:37;;;;;;;0.00;0.00;;;;;;;18.29;64.57;100157.66;4981710;28;20785;-60
2022/10/06 09:50:20;;;;;;;0.00;0.00;;;;;;;18.32;64.42;100152.03;4987390;28;20240;-58
2022/10/06 09:53:15;;;;;;;0.00;0.00;;;;;;;18.59;64.30;100168.59;4982117;28;20681;-59
2022/10/06 09:55:45;;;;;;;0.00;0.00;;;;;;;18.69;61.22;100163.13;4981910;28;20238;-59
2022/10/06 09:58:20;;;;;;;0.00;0.00;;;;;;;18.91;60.28;100153.69;4983771;28;20235;-60
2022/10/06 10:00:51;;;;;;;0.00;0.00;;;;;;;18.91;61.85;100160.78;4981484;28;20246;-59
2022/10/06 10:03:18;;;;;;;0.00;0.00;;;;;;;18.90;61.20;100157.31;4984442;28;20309;-59
2022/10/06 10:05:48;;;;;;;0.00;0.00;;;;;;;19.13;60.75;100152.19;4981767;28;20235;-62
2022/10/06 10:08:21;;;;;;;0.00;0.00;;;;;;;18.70;61.05;100152.38;4984334;28;20241;-59
2022/10/06 10:10:49;;;;;;;0.00;0.00;;;;;;;18.80;60.91;100154.03;4981828;28;20628;-59
2022/10/06 10:13:22;;;;;;;0.00;0.00;;;;;;;18.73;57.92;100149.41;4966809;28;20230;-60
2022/10/06 10:15:53;;;;;;;0.00;0.00;;;;;;;18.83;59.38;100156.34;4982192;28;20231;-60
2022/10/06 10:18:25;;;;;;;0.00;0.00;;;;;;;19.32;58.52;100147.50;4983785;28;20580;-59
2022/10/06 10:20:56;;;;;;;0.00;0.00;;;;;;;19.39;59.31;100147.63;4981566;28;21122;-60
2022/10/06 10:23:29;;;;;;;0.00;0.00;;;;;;;19.48;57.88;100146.59;4981438;28;20261;-60
2022/10/06 10:26:17;;;;;;;0.00;0.00;;;;;;;19.61;56.68;100143.38;4984787;28;20229;-60
2022/10/06 10:29:00;;;;;;;0.00;0.00;;;;;;;19.74;54.76;100151.59;4984563;28;20238;-61
2022/10/06 10:31:36;;;;;;;0.00;0.00;;;;;;;19.82;54.41;100148.09;4983571;28;20298;-59
2022/10/06 10:34:12;;;;;;;0.00;0.00;;;;;;;19.91;53.41;100151.56;4986899;28;20255;-59
2022/10/06 10:36:49;;;;;;;0.00;0.00;;;;;;;20.25;53.17;100145.03;4967688;28;20234;-60
2022/10/06 10:39:30;;;;;;;0.00;0.00;;;;;;;20.24;51.08;100148.69;4987407;28;20296;-59
2022/10/06 10:42:00;;;;;;;0.00;0.00;;;;;;;20.02;53.14;100155.66;4984943;28;20243;-57
2022/10/06 10:44:32;;;;;;;0.00;0.00;;;;;;;20.37;53.78;100165.84;4967154;28;20235;-60
2022/10/06 10:47:11;;;;;;;0.00;0.00;;;;;;;20.00;52.02;100157.66;4987973;28;20239;-59
2022/10/06 10:49:44;;;;;;;0.00;0.00;;;;;;;19.64;54.74;100158.13;4984483;28;20243;-60
2022/10/06 10:52:15;;;;;;;0.00;0.00;;;;;;;19.83;53.58;100144.44;4986496;28;20242;-59
2022/10/06 10:54:47;;;;;;;0.00;0.00;;;;;;;19.95;53.45;100144.91;4984269;28;20308;-59
2022/10/06 10:57:17;;;;;;;0.00;0.00;;;;;;;20.08;53.63;100136.41;4987830;28;20372;-59
2022/10/06 10:59:57;;;;;;;0.00;0.00;;;;;;;20.16;52.49;100143.44;4984970;28;20244;-59
2022/10/06 11:02:24;;;;;;;0.00;0.00;;;;;;;20.31;51.45;100144.34;4983934;28;20236;-60
2022/10/06 11:04:56;;;;;;;0.00;0.00;;;;;;;20.03;52.51;100131.59;4987276;28;20704;-59
2022/10/06 11:07:30;;;;;;;0.00;0.00;;;;;;;19.86;56.31;100138.81;4984426;28;20323;-59
2022/10/06 11:10:05;;;;;;;0.00;0.00;;;;;;;20.01;53.13;100138.09;4985835;28;20603;-60
2022/10/06 11:12:45;;;;;;;0.00;0.00;;;;;;;20.11;54.26;100138.69;4983951;28;20646;-60
2022/10/06 11:15:21;;;;;;;0.00;0.00;;;;;;;20.08;53.31;100143.50;4986815;28;20576;-60
2022/10/06 11:17:49;;;;;;;0.00;0.00;;;;;;;19.88;53.02;100150.06;4984303;28;20298;-60
2022/10/06 11:20:36;;;;;;;0.00;0.00;;;;;;;20.05;51.75;100136.75;4987335;28;20246;-60
2022/10/06 11:23:20;;;;;;;0.00;0.00;;;;;;;19.84;52.05;100135.50;4983518;28;20299;-60
2022/10/06 11:25:57;;;;;;;0.00;0.00;;;;;;;19.44;53.39;100132.88;4984912;28;20319;-60
2022/10/06 11:28:31;;;;;;;0.00;0.00;;;;;;;19.69;53.10;100138.06;4984024;28;20278;-59
2022/10/06 11:31:03;;;;;;;0.00;0.00;;;;;;;19.71;52.72;100135.25;4985417;28;20749;-60
2022/10/06 11:33:36;;;;;;;0.00;0.00;;;;;;;19.53;52.70;100133.66;4983779;28;20234;-60
2022/10/06 11:36:07;;;;;;;0.00;0.00;;;;;;;19.69;54.64;100132.75;4986628;28;20320;-60
2022/10/06 11:38:40;;;;;;;0.00;0.00;;;;;;;19.83;53.96;100136.50;4983217;28;20239;-60
2022/10/06 11:41:16;;;;;;;0.00;0.00;;;;;;;19.37;54.14;100133.72;4987176;28;20254;-60
2022/10/06 11:43:50;;;;;;;0.00;0.00;;;;;;;19.08;55.51;100133.34;4983876;28;20240;-60
2022/10/06 11:46:27;;;;;;;0.00;0.00;;;;;;;19.12;55.88;100133.81;4986539;28;20647;-60
2022/10/06 11:49:34;;;;;;;0.00;0.00;;;;;;;19.21;59.50;100130.13;4983959;28;20690;-59
2022/10/06 11:52:54;;;;;;;0.00;0.00;;;;;;;19.35;54.93;100122.47;4983743;28;21169;-59
2022/10/06 11:55:25;;;;;;;0.00;0.00;;;;;;;19.30;54.93;100123.00;4983902;28;20235;-58
2022/10/06 11:58:15;;;;;;;0.00;0.00;;;;;;;19.14;55.71;100122.06;4983935;28;20232;-59
2022/10/06 12:00:47;;;;;;;0.00;0.00;;;;;;;19.00;57.57;100120.13;4964844;28;22643;-60